< Typhoon 196612 1966 Season Typhoon 196614 >
Typhoon 196613 (TESS)
General InformationTrack Information on Google Maps || Disaster Info.ResourceGoogle EarthGE AnimationAtom FeedGeoJSON
Detalied Best Track (Time Zone = UTC)
Year Month Day Hour Lat. Long. Pressure (hPa) Wind (kt) Class Image Chart
1966 8 10 06 24.5 140.0 1004 0 2 -- Chart
1966 8 10 12 24.0 139.0 1006 0 2 -- Chart
1966 8 10 18 24.0 137.0 1004 0 2 -- Chart
1966 8 11 00 24.0 135.0 1004 0 2 -- Chart
1966 8 11 06 24.5 133.5 1002 0 2 -- Chart
1966 8 11 12 24.8 132.5 1002 0 2 -- Chart
1966 8 11 18 25.0 131.5 1002 0 2 -- Chart
1966 8 12 00 25.5 130.5 1002 0 2 -- Chart
1966 8 12 06 26.0 129.5 1000 0 2 -- Chart
1966 8 12 12 26.4 128.6 1000 0 2 -- Chart
1966 8 12 18 26.5 128.3 1000 0 2 -- Chart
1966 8 13 00 26.6 128.0 997 0 2 -- Chart
1966 8 13 06 26.8 127.8 994 0 2 -- Chart
1966 8 13 12 26.8 127.0 992 0 2 -- Chart
1966 8 13 18 26.9 126.1 990 0 9 -- Chart
1966 8 14 00 26.6 126.8 990 0 9 -- Chart
1966 8 14 06 26.6 126.9 986 0 9 -- Chart
1966 8 14 12 26.9 126.5 986 0 9 -- Chart
1966 8 14 18 26.9 126.1 986 0 9 -- Chart
1966 8 15 00 26.7 125.4 980 0 9 -- Chart
1966 8 15 06 26.5 125.1 979 0 9 -- Chart
1966 8 15 12 26.5 124.5 978 0 9 -- Chart
1966 8 15 18 26.7 123.7 978 0 9 -- Chart
1966 8 16 00 26.7 123.2 972 0 9 -- Chart
1966 8 16 06 26.6 122.6 974 0 9 -- Chart
1966 8 16 12 26.6 121.3 982 0 9 -- Chart
1966 8 16 18 26.6 119.8 984 0 9 -- Chart
1966 8 17 00 26.0 119.0 986 0 9 -- Chart
1966 8 17 06 25.7 118.5 992 0 9 -- Chart
1966 8 17 12 25.5 118.0 994 0 2 -- Chart
1966 8 17 18 25.2 117.3 994 0 2 -- Chart
1966 8 18 00 25.3 117.2 994 0 2 -- Chart
1966 8 18 06 25.4 117.0 996 0 2 -- Chart
1966 8 18 12 25.5 117.0 996 0 2 -- Chart
1966 8 18 18 25.7 117.4 997 0 2 -- Chart
1966 8 19 00 26.0 118.0 998 0 2 -- Chart
1966 8 19 06 27.0 118.7 996 0 2 -- Chart
1966 8 19 12 27.5 120.0 996 0 2 -- Chart
1966 8 19 18 27.3 121.5 996 0 2 -- Chart
1966 8 20 00 27.0 123.0 998 0 2 -- Chart
1966 8 20 06 26.5 124.0 997 0 2 -- Chart
1966 8 20 12 26.6 124.5 996 0 2 -- Chart
Japan Meteorological Agency Best Track Data | Correction Date : 1990-10-17
< Typhoon 196612 1966 Season Typhoon 196614 >

Help